createdAt,value
2023-01-29T00:03:04.456Z,23.4
2023-01-29T00:08:04.406Z,23.3
2023-01-29T00:13:04.399Z,24.8
2023-01-29T00:18:04.410Z,23.2
2023-01-29T00:23:04.411Z,23.8
2023-01-29T00:28:04.431Z,23.5
2023-01-29T00:33:04.424Z,22.8
2023-01-29T00:38:04.419Z,22.3
2023-01-29T00:43:04.413Z,24.6
2023-01-29T00:48:04.423Z,24.0
2023-01-29T00:53:04.423Z,22.4
2023-01-29T00:58:04.420Z,19.7
2023-01-29T01:03:04.435Z,25.5
2023-01-29T01:08:04.430Z,19.8
2023-01-29T01:13:04.446Z,24.8
2023-01-29T01:18:04.563Z,18.6
2023-01-29T01:23:04.446Z,20.0
2023-01-29T01:28:04.585Z,19.8
2023-01-29T01:33:04.434Z,21.9
2023-01-29T01:38:04.434Z,23.9
2023-01-29T01:43:04.437Z,22.1
2023-01-29T01:48:04.440Z,20.5
2023-01-29T01:53:04.458Z,21.3
2023-01-29T01:58:04.483Z,21.6
2023-01-29T02:03:04.469Z,22.4
2023-01-29T02:08:04.464Z,22.1
2023-01-29T02:13:04.468Z,22.0
2023-01-29T02:18:04.455Z,22.5
2023-01-29T02:23:04.455Z,23.9
2023-01-29T02:28:04.475Z,23.0
2023-01-29T02:33:04.483Z,23.7
2023-01-29T02:38:04.463Z,26.7
2023-01-29T02:43:04.472Z,25.4
2023-01-29T02:48:04.486Z,25.6
2023-01-29T02:53:04.470Z,31.2
2023-01-29T02:58:04.579Z,25.9
2023-01-29T03:03:04.492Z,28.6
2023-01-29T03:08:04.482Z,29.0
2023-01-29T03:13:04.478Z,28.0
2023-01-29T03:18:04.606Z,30.8
2023-01-29T03:23:04.491Z,31.8
2023-01-29T03:28:04.495Z,29.7
2023-01-29T03:33:04.491Z,29.9
2023-01-29T03:38:04.488Z,33.0
2023-01-29T03:43:04.493Z,29.7
2023-01-29T03:48:04.495Z,30.9
2023-01-29T03:53:04.499Z,30.3
2023-01-29T03:58:04.498Z,30.9
2023-01-29T04:03:04.502Z,31.0
2023-01-29T04:08:04.501Z,29.2
2023-01-29T04:13:04.521Z,34.8
2023-01-29T04:18:04.522Z,32.3
2023-01-29T04:23:04.509Z,31.4
2023-01-29T04:28:04.530Z,32.6
2023-01-29T04:33:04.522Z,30.1
2023-01-29T04:38:04.518Z,34.7
2023-01-29T04:43:04.526Z,33.6
2023-01-29T04:48:04.523Z,30.3
2023-01-29T04:53:04.533Z,33.0
2023-01-29T04:58:04.537Z,36.5
2023-01-29T05:03:04.649Z,30.9
2023-01-29T05:08:04.538Z,30.2
2023-01-29T05:13:04.548Z,33.7
2023-01-29T05:18:04.541Z,30.7
2023-01-29T05:23:04.550Z,31.3
2023-01-29T05:28:04.588Z,29.3
2023-01-29T05:33:04.560Z,32.2
2023-01-29T05:38:04.547Z,30.2
2023-01-29T05:43:04.558Z,31.4
2023-01-29T05:48:04.555Z,30.0
2023-01-29T05:53:04.563Z,32.8
2023-01-29T05:58:05.963Z,32.9
2023-01-29T06:03:04.673Z,32.0
2023-01-29T06:08:04.586Z,31.7
2023-01-29T06:13:04.570Z,29.9
2023-01-29T06:18:04.574Z,29.6
2023-01-29T06:23:04.572Z,33.1
2023-01-29T06:28:04.583Z,32.4
2023-01-29T06:33:04.596Z,32.4
2023-01-29T06:38:04.596Z,31.5
2023-01-29T06:43:04.583Z,31.4
2023-01-29T06:48:04.628Z,34.2
2023-01-29T06:53:04.623Z,34.2
2023-01-29T06:58:04.591Z,34.5
2023-01-29T07:03:04.609Z,34.2
2023-01-29T07:08:04.600Z,34.0
2023-01-29T07:13:04.604Z,35.9
2023-01-29T07:18:04.607Z,34.8
2023-01-29T07:23:04.612Z,33.0
2023-01-29T07:28:04.620Z,34.9
2023-01-29T07:33:07.158Z,35.7
2023-01-29T07:38:04.617Z,32.7
2023-01-29T07:43:04.623Z,32.8
2023-01-29T07:48:04.618Z,34.3
2023-01-29T07:53:04.635Z,36.3
2023-01-29T07:58:04.630Z,34.4
2023-01-29T08:03:04.622Z,36.2
2023-01-29T08:08:07.239Z,33.9
2023-01-29T08:13:04.630Z,32.9
2023-01-29T08:18:04.637Z,32.5
2023-01-29T08:23:04.672Z,31.8
2023-01-29T08:28:04.640Z,32.9
2023-01-29T08:33:04.637Z,32.2
2023-01-29T08:38:04.658Z,32.9
2023-01-29T08:43:06.854Z,30.1
2023-01-29T08:48:04.666Z,29.6
2023-01-29T08:53:04.651Z,32.5
2023-01-29T08:58:04.651Z,30.2
2023-01-29T09:03:04.673Z,29.0
2023-01-29T09:08:04.774Z,25.9
2023-01-29T09:13:04.665Z,25.4
2023-01-29T09:18:04.788Z,26.9
2023-01-29T09:23:04.869Z,25.6
2023-01-29T09:28:04.671Z,23.7
2023-01-29T09:33:04.679Z,26.3
2023-01-29T09:38:04.688Z,27.6
2023-01-29T09:43:04.677Z,27.8
2023-01-29T09:48:04.680Z,27.3
2023-01-29T09:53:04.680Z,25.8
2023-01-29T09:58:04.679Z,25.9
2023-01-29T10:03:04.692Z,26.5
2023-01-29T10:08:04.688Z,26.3
2023-01-29T10:13:04.696Z,26.3
2023-01-29T10:18:04.699Z,28.2
2023-01-29T10:23:04.697Z,26.5
2023-01-29T10:28:04.694Z,26.5
2023-01-29T10:33:04.719Z,25.1
2023-01-29T10:38:04.774Z,25.0
2023-01-29T10:43:04.708Z,26.3
2023-01-29T10:48:04.713Z,25.8
2023-01-29T10:53:04.716Z,23.1
2023-01-29T10:58:04.713Z,26.3
2023-01-29T11:03:08.152Z,27.5
2023-01-29T11:08:04.735Z,26.5
2023-01-29T11:13:04.719Z,26.3
2023-01-29T11:18:04.741Z,25.7
2023-01-29T11:23:06.725Z,23.8
2023-01-29T11:28:04.727Z,22.7
2023-01-29T11:33:04.737Z,22.6
2023-01-29T11:38:04.738Z,22.7
2023-01-29T11:43:04.646Z,22.5
2023-01-29T11:48:04.655Z,22.9
2023-01-29T11:53:04.755Z,20.0
2023-01-29T11:58:04.755Z,20.3
2023-01-29T12:03:04.659Z,21.1
2023-01-29T12:08:04.657Z,19.4
2023-01-29T12:13:04.664Z,18.5
2023-01-29T12:18:04.681Z,17.8
2023-01-29T12:23:04.680Z,19.2
2023-01-29T12:28:04.681Z,18.2
2023-01-29T12:33:04.671Z,18.9
2023-01-29T12:38:04.679Z,17.5
2023-01-29T12:43:04.684Z,18.5
2023-01-29T12:48:04.680Z,16.8
2023-01-29T12:53:04.690Z,19.5
2023-01-29T12:58:04.727Z,20.4
2023-01-29T13:03:04.727Z,20.0
2023-01-29T13:08:04.691Z,21.5
2023-01-29T13:13:04.696Z,19.2
2023-01-29T13:18:04.697Z,20.5
2023-01-29T13:23:04.704Z,21.7
2023-01-29T13:28:04.707Z,22.4
2023-01-29T13:38:04.710Z,25.1
2023-01-29T13:43:04.719Z,25.6
2023-01-29T13:48:04.708Z,24.8
2023-01-29T13:53:04.722Z,22.3
2023-01-29T13:58:04.843Z,26.6
2023-01-29T14:03:04.720Z,26.1
2023-01-29T14:08:04.723Z,24.4
2023-01-29T14:13:04.744Z,24.8
2023-01-29T14:18:04.730Z,23.9
2023-01-29T14:23:04.730Z,25.5
2023-01-29T14:28:04.768Z,27.2
2023-01-29T14:33:04.731Z,27.9
2023-01-29T14:38:04.746Z,27.8
2023-01-29T14:43:04.742Z,26.7
2023-01-29T14:48:04.745Z,27.4
2023-01-29T14:53:04.757Z,27.7
2023-01-29T14:58:04.749Z,26.4
2023-01-29T15:03:04.880Z,26.1
2023-01-29T15:08:04.757Z,26.9
2023-01-29T15:13:04.772Z,27.9
2023-01-29T15:18:04.762Z,24.5
2023-01-29T15:23:04.768Z,29.2
2023-01-29T15:28:04.771Z,27.6
2023-01-29T15:33:04.769Z,27.5
2023-01-29T15:38:04.769Z,24.7
2023-01-29T15:43:04.800Z,27.7
2023-01-29T15:48:04.779Z,24.8
2023-01-29T15:53:04.779Z,24.7
2023-01-29T15:58:04.793Z,25.9
2023-01-29T16:03:04.861Z,24.6
2023-01-29T16:08:04.791Z,22.7
2023-01-29T16:13:04.786Z,22.9
2023-01-29T16:18:04.791Z,24.3
2023-01-29T16:23:04.789Z,24.4
2023-01-29T16:28:04.789Z,25.2
2023-01-29T16:33:04.794Z,26.0
2023-01-29T16:38:04.899Z,20.9
2023-01-29T16:43:04.806Z,23.7
2023-01-29T16:48:04.806Z,29.1
2023-01-29T16:53:04.805Z,25.3
2023-01-29T16:58:04.820Z,25.0
2023-01-29T17:03:04.818Z,23.6
2023-01-29T17:08:04.900Z,26.0
2023-01-29T17:13:04.822Z,24.8
2023-01-29T17:18:04.825Z,24.1
2023-01-29T17:23:04.828Z,27.4
2023-01-29T17:28:04.834Z,22.9
2023-01-29T17:33:04.824Z,24.7
2023-01-29T17:38:07.407Z,24.4
2023-01-29T17:43:04.839Z,21.6
2023-01-29T17:48:04.831Z,22.3
2023-01-29T17:53:04.847Z,20.1
2023-01-29T17:58:04.837Z,20.9
2023-01-29T18:03:04.839Z,19.7
2023-01-29T18:08:04.937Z,21.0
2023-01-29T18:13:04.846Z,22.3
2023-01-29T18:18:04.849Z,22.8
2023-01-29T18:23:04.853Z,24.4
2023-01-29T18:28:04.909Z,21.6
2023-01-29T18:33:04.848Z,24.5
2023-01-29T18:38:04.857Z,22.9
2023-01-29T18:43:04.865Z,23.2
2023-01-29T18:48:04.870Z,24.3
2023-01-29T18:53:04.874Z,23.5
2023-01-29T18:58:27.870Z,24.5
2023-01-29T19:03:04.871Z,23.7
2023-01-29T19:08:04.871Z,26.6
2023-01-29T19:13:06.434Z,22.1
2023-01-29T19:18:04.895Z,20.8
2023-01-29T19:23:04.899Z,24.5
2023-01-29T19:28:04.905Z,25.5
2023-01-29T19:33:04.886Z,26.9
2023-01-29T19:38:04.981Z,25.1
2023-01-29T19:43:04.887Z,25.4
2023-01-29T19:48:04.894Z,29.4
2023-01-29T19:53:04.887Z,27.8
2023-01-29T19:58:04.900Z,26.4
2023-01-29T20:03:04.899Z,25.9
2023-01-29T20:08:04.906Z,27.0
2023-01-29T20:13:04.912Z,28.3
2023-01-29T20:18:04.911Z,26.9
2023-01-29T20:23:05.010Z,29.5
2023-01-29T20:28:04.920Z,29.6
2023-01-29T20:33:05.106Z,28.5
2023-01-29T20:38:04.925Z,31.0
2023-01-29T20:43:04.924Z,28.6
2023-01-29T20:48:04.921Z,31.0
2023-01-29T20:53:04.932Z,29.8
2023-01-29T20:58:06.849Z,27.6
2023-01-29T21:03:04.932Z,29.5
2023-01-29T21:08:04.940Z,28.9
2023-01-29T21:13:04.936Z,27.6
2023-01-29T21:18:04.939Z,29.5
2023-01-29T21:23:07.077Z,25.0
2023-01-29T21:28:04.942Z,29.5
2023-01-29T21:33:04.941Z,30.2
2023-01-29T21:38:04.960Z,26.4
2023-01-29T21:43:04.950Z,25.7
2023-01-29T21:48:04.971Z,26.1
2023-01-29T21:53:04.957Z,26.9
2023-01-29T21:58:04.962Z,27.1
2023-01-29T22:03:05.039Z,29.8
2023-01-29T22:08:05.009Z,25.9
2023-01-29T22:13:04.971Z,29.3
2023-01-29T22:18:04.976Z,26.9
2023-01-29T22:23:04.981Z,27.4
2023-01-29T22:28:04.973Z,27.9
2023-01-29T22:33:04.982Z,30.9
2023-01-29T22:38:04.982Z,29.7
2023-01-29T22:43:04.983Z,29.5
2023-01-29T22:48:06.564Z,28.0
2023-01-29T22:53:04.993Z,30.4
2023-01-29T22:58:04.989Z,28.3
2023-01-29T23:03:05.003Z,30.2
2023-01-29T23:08:05.001Z,35.4
2023-01-29T23:13:05.001Z,30.5
2023-01-29T23:18:04.998Z,31.5
2023-01-29T23:23:04.999Z,30.0
2023-01-29T23:28:05.097Z,29.7
2023-01-29T23:33:05.026Z,31.5
2023-01-29T23:38:05.014Z,31.8
2023-01-29T23:43:05.010Z,32.5
2023-01-29T23:48:05.026Z,30.6
2023-01-29T23:53:05.019Z,30.3
2023-01-29T23:58:05.121Z,29.2
